createdAt,value
2024-04-24T00:01:59.777Z,34.77
2024-04-24T00:12:06.600Z,34.70
2024-04-24T00:22:13.216Z,34.70
2024-04-24T00:32:19.758Z,34.78
2024-04-24T00:42:26.066Z,34.64
2024-04-24T00:52:31.136Z,34.67
2024-04-24T01:02:38.231Z,34.71
2024-04-24T01:12:45.331Z,34.58
2024-04-24T01:23:19.546Z,34.70
2024-04-24T01:33:26.498Z,34.65
2024-04-24T01:43:36.347Z,34.65
2024-04-24T01:53:44.019Z,34.69
2024-04-24T02:03:50.875Z,34.63
2024-04-24T02:13:57.158Z,34.67
2024-04-24T02:24:03.608Z,34.69
2024-04-24T02:34:08.763Z,34.54
2024-04-24T02:44:15.422Z,34.70
2024-04-24T02:54:22.891Z,34.72
2024-04-24T03:04:29.576Z,34.80
2024-04-24T03:14:36.386Z,34.73
2024-04-24T03:24:44.969Z,34.72
2024-04-24T03:34:51.275Z,34.68
2024-04-24T03:44:57.932Z,34.66
2024-04-24T03:55:05.030Z,34.63
2024-04-24T04:05:11.470Z,34.63
2024-04-24T04:15:17.520Z,34.78
2024-04-24T04:25:24.448Z,34.75
2024-04-24T04:35:31.083Z,34.73
2024-04-24T04:45:37.887Z,34.68
2024-04-24T04:55:44.986Z,34.77
2024-04-24T05:05:51.810Z,34.69
2024-04-24T05:15:58.656Z,34.69
2024-04-24T05:26:26.215Z,34.83
2024-04-24T05:36:32.974Z,34.84
2024-04-24T05:46:39.461Z,34.82
2024-04-24T05:56:44.563Z,34.91
2024-04-24T06:06:53.870Z,34.93
2024-04-24T06:17:02.145Z,34.98
2024-04-24T06:27:09.013Z,35.03
2024-04-24T06:37:13.852Z,35.04
2024-04-24T06:47:34.348Z,35.03
2024-04-24T06:57:40.889Z,35.06
2024-04-24T07:07:48.036Z,34.82
2024-04-24T07:17:54.756Z,34.82
2024-04-24T07:28:02.018Z,35.05
2024-04-24T07:38:13.200Z,35.07
2024-04-24T07:48:21.923Z,35.12
2024-04-24T07:58:33.199Z,35.38
2024-04-24T08:08:42.206Z,37.72
2024-04-24T08:18:51.413Z,38.74
2024-04-24T08:28:58.975Z,38.86
2024-04-24T08:39:07.611Z,38.76
2024-04-24T08:49:16.074Z,38.22
2024-04-24T08:59:28.981Z,38.21
2024-04-24T09:09:36.925Z,37.88
2024-04-24T09:19:44.059Z,37.45
2024-04-24T09:29:50.808Z,37.70
2024-04-24T09:39:57.584Z,38.18
2024-04-24T09:50:04.965Z,38.28
2024-04-24T10:00:16.019Z,38.22
2024-04-24T10:10:30.361Z,37.76
2024-04-24T10:20:40.076Z,37.66
2024-04-24T10:30:48.387Z,37.66
2024-04-24T10:40:55.643Z,37.74
2024-04-24T10:51:03.683Z,37.86
2024-04-24T11:01:17.269Z,37.86
2024-04-24T11:11:26.597Z,37.81
2024-04-24T11:21:33.329Z,37.77
2024-04-24T11:31:43.485Z,37.78
2024-04-24T11:41:52.869Z,37.64
2024-04-24T11:51:59.425Z,37.58
2024-04-24T12:02:05.314Z,37.78
2024-04-24T12:12:13.541Z,38.69
2024-04-24T12:22:20.221Z,38.98
2024-04-24T12:32:29.276Z,39.12
2024-04-24T12:42:38.778Z,39.00
2024-04-24T12:52:46.379Z,38.95
2024-04-24T13:02:54.145Z,39.32
2024-04-24T13:13:01.701Z,39.41
2024-04-24T13:23:08.407Z,39.57
2024-04-24T13:33:14.977Z,39.90
2024-04-24T13:43:21.341Z,40.22
2024-04-24T13:53:28.169Z,40.23
2024-04-24T14:03:34.946Z,40.41
2024-04-24T14:13:41.998Z,40.34
2024-04-24T14:23:48.407Z,40.37
2024-04-24T14:33:55.714Z,40.31
2024-04-24T14:44:02.239Z,40.40
2024-04-24T14:54:08.631Z,40.55
2024-04-24T15:04:13.733Z,40.59
2024-04-24T15:14:20.982Z,40.60
2024-04-24T15:24:27.701Z,40.91
2024-04-24T15:34:37.411Z,41.04
2024-04-24T15:44:43.961Z,41.20
2024-04-24T15:54:50.609Z,41.20
2024-04-24T16:04:58.227Z,41.39
2024-04-24T16:15:05.293Z,41.47
2024-04-24T16:25:11.789Z,41.41
2024-04-24T16:35:19.269Z,41.34
2024-04-24T16:45:26.291Z,41.27
2024-04-24T16:55:33.294Z,41.30
2024-04-24T17:05:40.592Z,41.21
2024-04-24T17:15:47.252Z,41.18
2024-04-24T17:25:53.962Z,41.16
2024-04-24T17:36:00.500Z,41.22
2024-04-24T17:46:08.203Z,41.38
2024-04-24T17:56:15.022Z,41.56
2024-04-24T18:06:22.137Z,42.10
2024-04-24T18:16:29.250Z,43.06
2024-04-24T18:26:35.779Z,43.26
2024-04-24T18:36:42.302Z,43.30
2024-04-24T18:46:49.824Z,43.29
2024-04-24T18:56:56.905Z,43.23
2024-04-24T19:07:03.494Z,43.15
2024-04-24T19:17:10.103Z,42.98
2024-04-24T19:27:23.329Z,42.83
2024-04-24T19:37:37.355Z,42.67
2024-04-24T19:47:44.068Z,42.55
2024-04-24T19:57:51.221Z,42.40
2024-04-24T20:07:58.211Z,42.21
2024-04-24T20:18:05.064Z,42.12
2024-04-24T20:28:11.763Z,42.02
2024-04-24T20:38:18.872Z,41.89
2024-04-24T20:48:25.993Z,41.81
2024-04-24T20:58:33.347Z,41.74
2024-04-24T21:08:40.639Z,41.71
2024-04-24T21:18:47.355Z,41.62
2024-04-24T21:28:53.923Z,41.51
2024-04-24T21:39:02.583Z,41.48
2024-04-24T21:49:08.906Z,41.41
2024-04-24T21:59:14.722Z,41.25
2024-04-24T22:09:21.298Z,41.24
2024-04-24T22:19:31.393Z,41.15
2024-04-24T22:29:38.285Z,41.11
2024-04-24T22:39:44.794Z,41.08
2024-04-24T22:49:51.084Z,41.08
2024-04-24T22:59:57.036Z,40.95
2024-04-24T23:10:03.596Z,40.93
2024-04-24T23:20:11.500Z,40.93
2024-04-24T23:30:18.536Z,40.78
2024-04-24T23:40:25.112Z,40.72
2024-04-24T23:50:31.879Z,40.73
